Time;durP1;ratioP1;P1;durP2;ratioP2;P2;SDS_P1;SDS_P2;PMS_P1;PMS_P2;Temp;Humidity;BMP_temperature;BMP_pressure;BME280_temperature;BME280_humidity;BME280_pressure;Samples;Min_cycle;Max_cycle;Signal;HPM_P1;HPM_P2
2022/09/11 00:01:13;;;;;;;1.90;1.20;;;13.40;99.90;13.30;100309.00;;;;4931246;28;99501;-61
2022/09/11 00:03:40;;;;;;;1.07;0.87;;;13.30;99.90;13.30;100310.00;;;;4932000;28;88234;-60
2022/09/11 00:06:10;;;;;;;2.33;1.30;;;13.30;99.90;13.30;100304.00;;;;4934850;28;89209;-61
2022/09/11 00:08:37;;;;;;;2.00;1.47;;;13.30;99.90;13.30;100305.00;;;;4933358;28;100532;-61
2022/09/11 00:11:07;;;;;;;1.70;1.60;;;13.30;99.90;13.30;100311.00;;;;4933152;28;88202;-61
2022/09/11 00:13:35;;;;;;;1.57;1.47;;;13.30;99.90;13.20;100310.00;;;;4936501;28;112168;-60
2022/09/11 00:16:06;;;;;;;1.63;1.10;;;13.20;99.90;13.20;100302.00;;;;4935686;28;88871;-61
2022/09/11 00:18:34;;;;;;;3.03;1.40;;;13.20;99.90;13.20;100301.00;;;;4934070;28;87594;-61
2022/09/11 00:21:02;;;;;;;1.07;1.07;;;13.20;99.90;13.20;100302.00;;;;4931119;28;87662;-61
2022/09/11 00:23:28;;;;;;;1.13;0.70;;;13.20;99.90;13.20;100298.00;;;;4930908;28;87436;-61
2022/09/11 00:25:54;;;;;;;1.27;0.77;;;13.20;99.90;13.30;100307.00;;;;4933294;28;88249;-61
2022/09/11 00:28:24;;;;;;;3.33;1.07;;;13.20;99.90;13.30;100298.00;;;;4934813;28;87995;-61
2022/09/11 00:31:06;;;;;;;7.40;1.80;;;13.20;99.90;13.30;100300.00;;;;4937209;28;109447;-61
2022/09/11 00:33:33;;;;;;;1.70;1.57;;;13.30;99.90;13.30;100297.00;;;;4937016;28;88455;-61
2022/09/11 00:36:24;;;;;;;1.87;0.90;;;13.20;99.90;13.30;100302.00;;;;4931321;28;110036;-61
2022/09/11 00:38:51;;;;;;;1.77;1.67;;;13.30;99.90;13.30;100305.00;;;;4933728;28;87741;-61
2022/09/11 00:41:34;;;;;;;1.37;1.20;;;13.30;99.90;13.30;100301.00;;;;4932404;28;99495;-61
2022/09/11 00:44:03;;;;;;;1.80;0.70;;;13.30;99.90;13.30;100293.00;;;;4931296;28;88848;-61
2022/09/11 00:46:45;;;;;;;1.97;1.00;;;13.30;99.90;13.30;100299.00;;;;4934790;28;87864;-62
2022/09/11 00:49:42;;;;;;;1.70;1.60;;;13.30;99.90;13.30;100301.00;;;;4937975;28;87246;-61
2022/09/11 00:52:11;;;;;;;3.47;1.07;;;13.30;99.90;13.30;100304.00;;;;4917428;28;88034;-61
2022/09/11 00:55:02;;;;;;;1.40;1.00;;;13.30;99.90;13.30;100298.00;;;;4931901;28;88866;-61
2022/09/11 00:57:33;;;;;;;1.10;1.07;;;13.30;99.90;13.30;100299.00;;;;4930118;28;88784;-61
2022/09/11 01:00:01;;;;;;;1.67;1.57;;;13.30;99.90;13.30;100293.00;;;;4931575;28;87827;-61
2022/09/11 01:02:30;;;;;;;2.63;1.27;;;13.30;99.90;13.30;100295.00;;;;4911962;28;92933;-60
2022/09/11 01:04:57;;;;;;;1.43;0.90;;;13.30;99.90;13.40;100292.00;;;;4893649;28;88743;-60
2022/09/11 01:07:25;;;;;;;3.53;1.00;;;13.30;99.90;13.30;100295.00;;;;4916040;28;117565;-61
2022/09/11 01:09:52;;;;;;;1.20;1.10;;;13.50;99.90;13.40;100295.00;;;;4937005;28;87878;-61
2022/09/11 01:13:00;;;;;;;3.07;1.40;;;13.30;99.90;13.30;100298.00;;;;4920127;28;88664;-61
2022/09/11 01:16:07;;;;;;;0.80;0.80;;;13.30;99.90;13.40;100294.00;;;;4861016;28;88082;-60
2022/09/11 01:19:11;;;;;;;1.37;0.97;;;13.40;99.90;13.40;100302.00;;;;4886030;28;88027;-60
2022/09/11 01:22:16;;;;;;;0.87;0.60;;;13.40;99.90;13.30;100304.00;;;;4928494;28;97792;-61
2022/09/11 01:25:35;;;;;;;1.63;1.23;;;13.30;99.90;13.30;100299.00;;;;4911050;28;88658;-61
2022/09/11 01:28:12;;;;;;;1.03;1.00;;;13.30;99.90;13.30;100300.00;;;;4932668;28;88386;-61
2022/09/11 01:30:48;;;;;;;1.37;1.27;;;13.30;99.90;13.30;100307.00;;;;4916090;28;88576;-61
2022/09/11 01:34:28;;;;;;;1.20;1.10;;;13.30;99.90;13.30;100307.00;;;;4931712;28;87970;-61
2022/09/11 01:37:05;;;;;;;1.30;1.07;;;13.30;99.90;13.30;100313.00;;;;4861466;28;88224;-61
2022/09/11 01:39:42;;;;;;;1.03;0.90;;;13.30;99.90;13.30;100311.00;;;;4899977;28;111684;-61
2022/09/11 01:42:16;;;;;;;1.60;1.33;;;13.30;99.90;13.30;100309.00;;;;4912219;28;107200;-61
2022/09/11 01:44:54;;;;;;;1.30;1.20;;;13.30;99.90;13.30;100308.00;;;;4929549;28;87259;-61
2022/09/11 01:47:21;;;;;;;1.30;1.10;;;13.30;99.90;13.30;100307.00;;;;4937142;28;87819;-61
2022/09/11 01:50:04;;;;;;;1.53;1.43;;;13.20;99.90;13.30;100309.00;;;;4936742;28;87937;-61
2022/09/11 01:52:42;;;;;;;1.70;1.17;;;13.30;99.90;13.30;100310.00;;;;4915408;28;109416;-61
2022/09/11 01:55:22;;;;;;;1.67;1.13;;;13.20;99.90;13.20;100308.00;;;;4917976;28;95984;-61
2022/09/11 01:58:14;;;;;;;1.83;1.30;;;13.20;99.90;13.20;100307.00;;;;4916779;28;88072;-61
2022/09/11 02:00:43;;;;;;;1.43;1.20;;;13.20;99.90;13.20;100311.00;;;;4928259;28;88100;-62
2022/09/11 02:03:23;;;;;;;1.37;1.13;;;13.20;99.90;13.20;100305.00;;;;4909649;28;87810;-60
2022/09/11 02:06:04;;;;;;;1.30;0.90;;;13.20;99.90;13.20;100304.00;;;;4930561;28;103891;-61
2022/09/11 02:08:46;;;;;;;1.70;1.03;;;13.20;99.90;13.20;100303.00;;;;4933070;28;87759;-61
2022/09/11 02:11:13;;;;;;;0.93;0.93;;;13.20;99.90;13.20;100304.00;;;;4931693;28;109604;-61
2022/09/11 02:13:47;;;;;;;1.20;1.10;;;13.20;99.90;13.20;100310.00;;;;4934608;28;88135;-59
2022/09/11 02:16:52;;;;;;;1.67;0.93;;;13.20;99.90;13.20;100301.00;;;;4932993;28;87627;-61
2022/09/11 02:19:22;;;;;;;1.20;1.07;;;13.20;99.90;13.20;100308.00;;;;4938772;28;88814;-62
2022/09/11 02:21:49;;;;;;;1.43;1.00;;;13.10;99.90;13.20;100302.00;;;;4933245;28;112017;-61
2022/09/11 02:24:17;;;;;;;1.70;1.00;;;13.10;99.90;13.10;100306.00;;;;4940121;28;88409;-61
2022/09/11 02:26:51;;;;;;;1.10;1.00;;;13.10;99.90;13.10;100304.00;;;;4940368;28;87582;-60
2022/09/11 02:29:17;;;;;;;2.43;1.10;;;13.10;99.90;13.10;100303.00;;;;4925358;28;87622;-61
2022/09/11 02:31:44;;;;;;;1.27;1.00;;;13.10;99.90;13.00;100304.00;;;;4936782;28;116485;-61
2022/09/11 02:34:12;;;;;;;1.10;1.00;;;13.00;99.90;13.00;100302.00;;;;4916652;28;116855;-61
2022/09/11 02:37:37;;;;;;;1.57;1.03;;;13.00;99.90;12.90;100301.00;;;;4914611;28;97676;-61
2022/09/11 02:40:30;;;;;;;2.30;1.10;;;13.00;99.90;12.90;100297.00;;;;4912345;28;88121;-60
2022/09/11 02:43:31;;;;;;;1.50;1.23;;;12.90;99.90;12.80;100310.00;;;;4918593;28;89802;-61
2022/09/11 02:46:47;;;;;;;1.70;0.93;;;12.90;99.90;12.80;100308.00;;;;4914410;28;88834;-62
2022/09/11 02:49:29;;;;;;;1.80;0.93;;;12.80;99.90;12.70;100301.00;;;;4918797;28;88115;-62
2022/09/11 02:52:26;;;;;;;1.33;1.23;;;12.80;99.90;12.70;100299.00;;;;4911824;28;101631;-61
2022/09/11 02:55:30;;;;;;;2.13;1.17;;;12.80;99.90;12.60;100296.00;;;;4930156;28;87946;-61
2022/09/11 02:58:14;;;;;;;1.27;1.17;;;12.70;99.90;12.60;100300.00;;;;4920350;28;108308;-61
2022/09/11 03:00:40;;;;;;;1.43;1.33;;;12.70;99.90;12.60;100306.00;;;;4935786;28;87934;-61
2022/09/11 03:03:06;;;;;;;1.53;1.43;;;12.70;99.90;12.60;100310.00;;;;4913629;28;108329;-61
2022/09/11 03:05:32;;;;;;;2.40;1.63;;;12.60;99.90;12.60;100300.00;;;;4937668;28;87830;-61
2022/09/11 03:07:58;;;;;;;1.17;1.07;;;12.60;99.90;12.60;100307.00;;;;4921143;28;117267;-61
2022/09/11 03:10:26;;;;;;;0.80;0.80;;;12.60;99.90;12.60;100308.00;;;;4934387;28;87805;-61
2022/09/11 03:12:53;;;;;;;1.30;1.13;;;12.50;99.90;12.50;100302.00;;;;4937085;28;89213;-61
2022/09/11 03:15:19;;;;;;;7.97;1.23;;;12.50;99.90;12.50;100311.00;;;;4936922;28;88710;-59
2022/09/11 03:17:45;;;;;;;2.60;1.57;;;12.50;99.90;12.50;100307.00;;;;4929664;28;90903;-61
2022/09/11 03:20:11;;;;;;;1.40;1.30;;;12.40;99.90;12.40;100301.00;;;;4925992;28;87562;-60
2022/09/11 03:22:38;;;;;;;1.93;1.40;;;12.50;99.90;12.40;100313.00;;;;4932998;28;87985;-60
2022/09/11 03:25:05;;;;;;;1.87;1.23;;;12.40;99.90;12.40;100294.00;;;;4937368;28;88414;-61
2022/09/11 03:27:31;;;;;;;1.63;1.00;;;12.40;99.90;12.30;100292.00;;;;4937475;28;88751;-59
2022/09/11 03:29:57;;;;;;;0.70;0.67;;;12.40;99.90;12.30;100301.00;;;;4934166;28;87173;-60
2022/09/11 03:32:23;;;;;;;2.40;1.60;;;12.30;99.90;12.30;100295.00;;;;4934857;28;88115;-61
2022/09/11 03:34:49;;;;;;;1.57;1.40;;;12.30;99.90;12.20;100298.00;;;;4937391;28;116047;-61
2022/09/11 03:37:15;;;;;;;2.40;1.40;;;12.30;99.90;12.20;100294.00;;;;4936559;28;117077;-62
2022/09/11 03:39:42;;;;;;;4.40;1.70;;;12.20;99.90;12.20;100300.00;;;;4936906;28;110396;-61
2022/09/11 03:42:11;;;;;;;1.87;1.53;;;12.20;99.90;12.20;100294.00;;;;4934966;28;87657;-61
2022/09/11 03:44:36;;;;;;;1.77;1.50;;;12.20;99.90;12.20;100303.00;;;;4926739;28;88998;-61
2022/09/11 03:47:02;;;;;;;1.40;1.30;;;12.20;99.90;12.10;100302.00;;;;4936026;28;116481;-61
2022/09/11 03:49:28;;;;;;;2.53;1.97;;;12.20;99.90;12.10;100307.00;;;;4928076;28;107608;-61
2022/09/11 03:51:53;;;;;;;1.57;1.17;;;12.10;99.90;12.10;100313.00;;;;4935246;28;106632;-61
2022/09/11 03:54:19;;;;;;;1.83;1.50;;;12.20;99.90;12.10;100310.00;;;;4928478;28;118045;-61
2022/09/11 03:56:45;;;;;;;2.70;2.40;;;12.10;99.90;12.10;100313.00;;;;4925419;28;87847;-61
2022/09/11 03:59:11;;;;;;;2.23;1.90;;;12.10;99.90;12.10;100310.00;;;;4922943;28;110593;-61
2022/09/11 04:01:37;;;;;;;2.20;1.47;;;12.10;99.90;12.10;100307.00;;;;4927996;28;88687;-61
2022/09/11 04:04:03;;;;;;;1.53;1.43;;;12.10;99.90;12.10;100318.00;;;;4923118;28;116684;-61
2022/09/11 04:06:31;;;;;;;2.20;1.80;;;12.10;99.90;12.10;100324.00;;;;4908132;28;87912;-62
2022/09/11 04:08:57;;;;;;;2.40;2.07;;;12.10;99.90;12.10;100325.00;;;;4923743;28;87807;-62
2022/09/11 04:11:23;;;;;;;2.17;1.93;;;12.10;99.90;12.20;100333.00;;;;4926594;28;109023;-62
2022/09/11 04:13:50;;;;;;;1.30;1.20;;;12.10;99.90;12.20;100331.00;;;;4926890;28;115837;-61
2022/09/11 04:16:18;;;;;;;4.13;1.90;;;12.20;99.90;12.20;100330.00;;;;4928615;28;87826;-62
2022/09/11 04:18:45;;;;;;;1.90;1.70;;;12.20;99.90;12.20;100336.00;;;;4931688;28;90145;-62
2022/09/11 04:21:15;;;;;;;3.90;1.40;;;12.20;99.90;12.20;100337.00;;;;4933063;28;88258;-62
2022/09/11 04:23:41;;;;;;;1.73;1.20;;;12.20;99.90;12.20;100346.00;;;;4931366;28;107794;-61
2022/09/11 04:26:17;;;;;;;2.07;1.53;;;12.20;99.90;12.20;100344.00;;;;4919516;28;89063;-62
2022/09/11 04:28:43;;;;;;;2.30;1.43;;;12.20;99.90;12.20;100340.00;;;;4906678;28;87727;-62
2022/09/11 04:31:09;;;;;;;1.90;1.37;;;12.20;99.90;12.10;100345.00;;;;4926091;28;87849;-62
2022/09/11 04:33:35;;;;;;;2.03;1.83;;;12.20;99.90;12.10;100337.00;;;;4928738;28;88263;-62
2022/09/11 04:36:06;;;;;;;3.13;2.50;;;12.10;99.90;12.10;100341.00;;;;4927029;28;88574;-62
2022/09/11 04:38:33;;;;;;;3.20;2.20;;;12.10;99.90;12.10;100339.00;;;;4931027;28;88163;-62
2022/09/11 04:41:04;;;;;;;1.97;1.83;;;12.20;99.90;12.10;100335.00;;;;4929958;28;87674;-62
2022/09/11 04:43:31;;;;;;;4.00;2.57;;;12.20;99.90;12.20;100344.00;;;;4933676;28;88172;-62
2022/09/11 04:46:07;;;;;;;1.83;1.50;;;12.20;99.90;12.20;100347.00;;;;4922656;28;107448;-62
2022/09/11 04:48:32;;;;;;;3.03;1.73;;;12.10;99.90;12.20;100349.00;;;;4922837;28;87854;-62
2022/09/11 04:51:02;;;;;;;2.10;2.00;;;12.10;99.90;12.10;100346.00;;;;4924824;28;108518;-61
2022/09/11 04:53:28;;;;;;;2.30;1.43;;;12.20;99.90;12.10;100358.00;;;;4927049;28;90854;-63
2022/09/11 04:56:09;;;;;;;2.47;2.03;;;12.10;99.90;12.10;100350.00;;;;4930460;28;87916;-62
2022/09/11 04:58:35;;;;;;;3.57;2.57;;;12.10;99.90;12.20;100355.00;;;;4929532;28;102765;-63
2022/09/11 05:01:09;;;;;;;2.77;2.30;;;12.10;99.90;12.20;100359.00;;;;4934765;28;88352;-62
2022/09/11 05:03:35;;;;;;;3.27;2.53;;;12.20;99.90;12.20;100353.00;;;;4924732;28;88860;-62
2022/09/11 05:06:06;;;;;;;4.93;2.50;;;12.20;99.90;12.30;100364.00;;;;4905719;28;105383;-62
2022/09/11 05:08:32;;;;;;;10.03;3.67;;;12.20;99.90;12.30;100366.00;;;;4920077;28;94395;-62
2022/09/11 05:11:04;;;;;;;3.53;2.27;;;12.30;99.90;12.30;100363.00;;;;4925321;28;87785;-63
2022/09/11 05:13:32;;;;;;;3.43;2.83;;;12.30;99.90;12.40;100371.00;;;;4928963;28;88078;-62
2022/09/11 05:16:05;;;;;;;3.43;3.03;;;12.40;99.90;12.40;100372.00;;;;4928332;28;88940;-62
2022/09/11 05:18:31;;;;;;;3.37;2.80;;;12.40;99.90;12.50;100370.00;;;;4932536;28;87888;-62
2022/09/11 05:21:03;;;;;;;5.03;3.50;;;12.50;99.90;12.60;100376.00;;;;4935121;28;87774;-62
2022/09/11 05:23:30;;;;;;;5.83;3.53;;;12.50;99.90;12.70;100378.00;;;;4933672;28;89604;-62
2022/09/11 05:26:01;;;;;;;2.80;2.33;;;12.60;99.90;12.80;100382.00;;;;4924937;28;87816;-62
2022/09/11 05:28:28;;;;;;;4.60;2.83;;;12.70;99.90;12.90;100379.00;;;;4924294;28;92597;-62
2022/09/11 05:30:55;;;;;;;5.07;3.47;;;12.80;99.90;12.90;100387.00;;;;4924987;28;110080;-62
2022/09/11 05:33:22;;;;;;;5.10;3.13;;;12.90;99.90;13.00;100394.00;;;;4928175;28;90549;-63
2022/09/11 05:35:52;;;;;;;2.93;2.67;;;13.00;99.90;13.10;100390.00;;;;4929628;28;109359;-63
2022/09/11 05:38:19;;;;;;;4.43;3.43;;;13.00;99.90;13.20;100390.00;;;;4932807;28;87771;-63
2022/09/11 05:40:50;;;;;;;3.40;3.10;;;13.10;99.90;13.20;100392.00;;;;4930974;28;92440;-63
2022/09/11 05:43:18;;;;;;;11.83;3.93;;;13.20;99.90;13.30;100394.00;;;;4929929;28;88780;-63
2022/09/11 05:45:44;;;;;;;4.53;3.70;;;13.20;99.90;13.30;100396.00;;;;4923261;28;88557;-61
2022/09/11 05:48:11;;;;;;;5.37;3.83;;;13.30;99.90;13.40;100397.00;;;;4926293;28;87635;-62
2022/09/11 05:50:37;;;;;;;3.97;3.17;;;13.30;99.90;13.40;100397.00;;;;4931444;28;108927;-61
2022/09/11 05:53:04;;;;;;;3.87;3.50;;;13.40;99.90;13.50;100403.00;;;;4934242;28;104142;-62
2022/09/11 05:55:34;;;;;;;6.60;3.77;;;13.40;99.90;13.60;100408.00;;;;4937183;28;87785;-62
2022/09/11 05:58:00;;;;;;;6.03;4.23;;;13.50;99.90;13.60;100418.00;;;;4935108;28;86944;-61
2022/09/11 06:00:26;;;;;;;5.87;3.73;;;13.50;99.90;13.70;100426.00;;;;4931930;28;87760;-62
2022/09/11 06:02:57;;;;;;;6.40;4.40;;;13.60;99.90;13.70;100421.00;;;;4932977;28;88442;-63
2022/09/11 06:05:23;;;;;;;3.67;3.10;;;13.70;99.90;13.80;100431.00;;;;4926479;28;88929;-62
2022/09/11 06:07:50;;;;;;;5.20;3.70;;;13.70;99.90;13.80;100421.00;;;;4928476;28;110145;-61
2022/09/11 06:10:16;;;;;;;4.43;3.53;;;13.80;99.90;13.80;100430.00;;;;4932234;28;87618;-62
2022/09/11 06:12:42;;;;;;;5.40;4.30;;;13.80;99.90;13.90;100435.00;;;;4933529;28;110319;-61
2022/09/11 06:15:08;;;;;;;5.33;3.57;;;13.80;99.90;13.90;100429.00;;;;4936314;28;116647;-63
2022/09/11 06:17:34;;;;;;;5.13;4.03;;;13.90;99.90;13.90;100434.00;;;;4940528;28;101585;-60
2022/09/11 06:20:00;;;;;;;4.13;3.03;;;13.90;99.90;14.00;100430.00;;;;4932930;28;107430;-62
2022/09/11 06:22:28;;;;;;;5.53;4.40;;;13.90;99.90;14.00;100439.00;;;;4938200;28;88084;-61
2022/09/11 06:24:54;;;;;;;6.33;3.87;;;14.00;99.90;14.00;100438.00;;;;4931388;28;87845;-63
2022/09/11 06:27:20;;;;;;;6.63;4.60;;;14.00;99.90;14.10;100449.00;;;;4897558;28;87818;-62
2022/09/11 06:29:45;;;;;;;5.23;4.40;;;14.00;99.90;14.10;100443.00;;;;4931682;28;108340;-62
2022/09/11 06:32:11;;;;;;;4.33;3.90;;;14.00;99.90;14.10;100454.00;;;;4933242;28;117084;-62
2022/09/11 06:34:37;;;;;;;7.60;4.53;;;14.00;99.90;14.10;100443.00;;;;4936082;28;117350;-62
2022/09/11 06:37:02;;;;;;;5.60;4.20;;;14.00;99.90;14.20;100454.00;;;;4941175;28;87926;-62
2022/09/11 06:39:28;;;;;;;6.13;5.03;;;14.10;99.90;14.20;100447.00;;;;4939709;28;103873;-62
2022/09/11 06:41:54;;;;;;;7.30;5.10;;;14.10;99.90;14.20;100451.00;;;;4929383;28;118969;-61
2022/09/11 06:44:19;;;;;;;7.37;4.00;;;14.10;99.90;14.20;100454.00;;;;4926624;28;117377;-62
2022/09/11 06:46:46;;;;;;;5.63;4.73;;;14.10;99.90;14.20;100461.00;;;;4924527;28;109842;-62
2022/09/11 06:49:11;;;;;;;6.37;4.27;;;14.20;99.90;14.20;100467.00;;;;4932667;28;87882;-62
2022/09/11 06:51:38;;;;;;;6.90;4.60;;;14.20;99.90;14.30;100471.00;;;;4929948;28;110055;-59
2022/09/11 06:54:05;;;;;;;9.47;5.20;;;14.20;99.90;14.30;100466.00;;;;4917989;28;89995;-61
2022/09/11 06:56:31;;;;;;;5.33;4.77;;;14.20;99.90;14.40;100477.00;;;;4931358;28;87966;-61
2022/09/11 06:58:57;;;;;;;10.03;5.70;;;14.30;99.90;14.40;100477.00;;;;4931903;28;108344;-61
2022/09/11 07:01:23;;;;;;;4.73;4.10;;;14.30;99.90;14.50;100484.00;;;;4930639;28;87675;-62
2022/09/11 07:03:52;;;;;;;5.20;4.70;;;14.30;99.90;14.50;100487.00;;;;4922613;28;117491;-61
2022/09/11 07:06:23;;;;;;;6.37;4.50;;;14.40;99.90;14.50;100482.00;;;;4922632;28;87646;-61
2022/09/11 07:08:51;;;;;;;8.40;4.23;;;14.40;99.90;14.50;100487.00;;;;4926049;28;87735;-62
2022/09/11 07:11:18;;;;;;;5.37;4.30;;;14.50;99.90;14.60;100496.00;;;;4926961;28;87861;-62
2022/09/11 07:13:44;;;;;;;8.63;5.33;;;14.50;99.90;14.60;100490.00;;;;4929311;28;88910;-62
2022/09/11 07:16:12;;;;;;;6.47;5.00;;;14.50;99.90;14.70;100493.00;;;;4931163;28;111109;-62
2022/09/11 07:18:41;;;;;;;5.17;4.67;;;14.70;99.90;14.70;100503.00;;;;4926135;28;89081;-61
2022/09/11 07:21:16;;;;;;;12.47;6.33;;;14.60;99.90;14.70;100504.00;;;;4930534;28;87852;-61
2022/09/11 07:23:48;;;;;;;5.87;4.77;;;14.60;99.90;14.70;100500.00;;;;4928831;28;108873;-62
2022/09/11 07:26:14;;;;;;;7.80;5.57;;;14.60;99.90;14.70;100498.00;;;;4925010;28;87956;-62
2022/09/11 07:28:40;;;;;;;7.17;5.97;;;14.60;99.90;14.80;100503.00;;;;4926629;28;108840;-61
2022/09/11 07:31:10;;;;;;;8.53;6.10;;;14.70;99.90;14.80;100509.00;;;;4925028;28;117185;-61
2022/09/11 07:33:38;;;;;;;6.70;5.43;;;14.70;99.90;14.80;100501.00;;;;4926220;28;87810;-61
2022/09/11 07:36:10;;;;;;;11.43;7.27;;;14.70;99.90;14.90;100510.00;;;;4927932;28;87312;-62
2022/09/11 07:38:40;;;;;;;7.30;6.07;;;14.80;99.90;14.90;100509.00;;;;4930602;28;88101;-59
2022/09/11 07:41:10;;;;;;;10.73;5.93;;;14.80;99.90;14.90;100512.00;;;;4923846;28;88749;-61
2022/09/11 07:43:37;;;;;;;11.50;6.15;;;14.90;99.90;15.00;100524.00;;;;4928543;28;88930;-61
2022/09/11 07:46:06;;;;;;;12.30;7.23;;;14.90;99.90;15.00;100509.00;;;;4925699;28;102739;-61
2022/09/11 07:48:32;;;;;;;8.10;6.20;;;14.90;99.90;15.00;100515.00;;;;4925655;28;92697;-61
2022/09/11 07:51:03;;;;;;;8.83;6.63;;;14.90;99.90;15.00;100507.00;;;;4925941;28;116220;-61
2022/09/11 07:53:38;;;;;;;10.90;6.97;;;15.00;99.90;15.10;100507.00;;;;4926381;28;87668;-61
2022/09/11 07:56:07;;;;;;;6.85;5.22;;;15.00;99.90;15.10;100506.00;;;;4927328;28;96079;-62
2022/09/11 07:58:40;;;;;;;8.55;5.95;;;15.00;99.90;15.20;100518.00;;;;4926286;28;88072;-61
2022/09/11 08:01:12;;;;;;;10.48;6.50;;;15.10;99.90;15.20;100521.00;;;;4925025;28;88327;-61
2022/09/11 08:03:39;;;;;;;8.98;6.18;;;15.10;99.90;15.20;100533.00;;;;4922065;28;87696;-62
2022/09/11 08:06:07;;;;;;;9.75;6.00;;;15.10;99.90;15.30;100535.00;;;;4924109;28;110195;-61
2022/09/11 08:08:34;;;;;;;11.40;5.80;;;15.20;99.90;15.30;100527.00;;;;4926762;28;89070;-61
2022/09/11 08:11:06;;;;;;;9.57;5.22;;;15.20;99.90;15.40;100531.00;;;;4924339;28;116205;-61
2022/09/11 08:13:33;;;;;;;11.05;6.22;;;15.30;99.90;15.40;100542.00;;;;4928929;28;108039;-61
2022/09/11 08:15:59;;;;;;;9.13;5.50;;;15.30;99.90;15.50;100535.00;;;;4929334;28;88124;-62
2022/09/11 08:18:25;;;;;;;7.35;5.70;;;15.40;99.90;15.50;100548.00;;;;4913883;28;88013;-61
2022/09/11 08:20:51;;;;;;;6.78;5.10;;;15.40;99.90;15.60;100535.00;;;;4928472;28;89192;-62
2022/09/11 08:23:17;;;;;;;7.75;6.18;;;15.50;99.90;15.60;100541.00;;;;4924152;28;102664;-61
2022/09/11 08:25:43;;;;;;;9.27;5.25;;;15.50;99.90;15.70;100547.00;;;;4928744;28;87159;-61
2022/09/11 08:28:09;;;;;;;8.90;5.88;;;15.60;99.90;15.70;100542.00;;;;4929122;28;88105;-62
2022/09/11 08:30:38;;;;;;;9.45;6.45;;;15.60;99.90;15.70;100554.00;;;;4924101;28;89035;-61
2022/09/11 08:33:08;;;;;;;8.95;6.18;;;15.60;99.90;15.80;100558.00;;;;4928778;28;88817;-62
2022/09/11 08:35:34;;;;;;;9.80;7.07;;;15.70;99.90;15.80;100561.00;;;;4936574;28;87871;-61
2022/09/11 08:38:01;;;;;;;10.95;7.25;;;15.70;99.90;15.90;100569.00;;;;4930916;28;87994;-62
2022/09/11 08:40:29;;;;;;;9.07;7.35;;;15.70;99.90;15.90;100566.00;;;;4939065;28;88923;-62
2022/09/11 08:42:59;;;;;;;15.13;7.25;;;15.80;99.90;15.90;100572.00;;;;4940623;28;87781;-61
2022/09/11 08:45:32;;;;;;;8.57;5.55;;;15.80;99.90;16.00;100574.00;;;;4918104;28;98552;-61
2022/09/11 08:48:00;;;;;;;16.38;6.93;;;15.90;99.90;16.00;100573.00;;;;4931989;28;99628;-62
2022/09/11 08:50:33;;;;;;;8.32;5.65;;;15.90;99.90;16.00;100573.00;;;;4931580;28;87375;-61
2022/09/11 08:53:02;;;;;;;8.88;6.32;;;15.90;99.90;16.00;100579.00;;;;4928920;28;89795;-62
2022/09/11 08:55:38;;;;;;;9.25;6.07;;;15.90;99.90;16.10;100587.00;;;;4933408;28;87777;-62
2022/09/11 08:58:46;;;;;;;7.28;5.70;;;16.00;99.90;16.10;100592.00;;;;4928303;28;88649;-60
2022/09/11 09:01:44;;;;;;;6.93;4.95;;;16.00;99.90;16.20;100603.00;;;;4924210;28;88632;-61
2022/09/11 09:04:29;;;;;;;7.20;5.85;;;16.10;99.90;16.20;100601.00;;;;4930970;28;87611;-61
2022/09/11 09:07:47;;;;;;;7.32;5.47;;;16.10;99.90;16.20;100603.00;;;;4913424;28;103513;-62
2022/09/11 09:10:40;;;;;;;10.20;6.25;;;16.10;99.90;16.20;100595.00;;;;4809953;29;102978;-61
2022/09/11 09:13:35;;;;;;;10.23;5.00;;;16.10;99.90;16.20;100599.00;;;;4929652;28;107005;-62
2022/09/11 09:16:45;;;;;;;8.75;5.40;;;16.10;99.90;16.20;100604.00;;;;4914595;28;88022;-61
2022/09/11 09:19:39;;;;;;;8.30;5.35;;;16.10;99.90;16.20;100599.00;;;;4917187;28;87120;-62
2022/09/11 09:22:43;;;;;;;8.05;5.90;;;16.10;99.90;16.30;100606.00;;;;4919350;28;87691;-61
2022/09/11 09:25:14;;;;;;;6.07;5.32;;;16.10;99.90;16.30;100617.00;;;;4931912;28;88626;-61
2022/09/11 09:27:59;;;;;;;12.27;6.05;;;16.20;99.90;16.30;100622.00;;;;4910238;28;97502;-61
2022/09/11 09:30:29;;;;;;;7.90;5.30;;;16.20;99.90;16.40;100609.00;;;;4935105;28;105793;-61
2022/09/11 09:33:27;;;;;;;9.10;5.90;;;16.30;99.90;16.40;100614.00;;;;4929829;28;104186;-62
2022/09/11 09:35:53;;;;;;;8.77;6.53;;;16.30;99.90;16.40;100617.00;;;;4914066;28;89239;-62
2022/09/11 09:38:27;;;;;;;8.07;6.18;;;16.30;99.90;16.30;100621.00;;;;4926978;28;88350;-60
2022/09/11 09:41:36;;;;;;;5.72;5.15;;;16.20;99.90;16.30;100623.00;;;;4932544;28;88655;-60
2022/09/11 09:44:38;;;;;;;4.22;3.80;;;16.20;99.90;16.20;100622.00;;;;4929332;28;87989;-60
2022/09/11 09:47:11;;;;;;;7.53;5.30;;;16.20;99.90;16.20;100625.00;;;;4932935;28;90089;-61
2022/09/11 09:49:37;;;;;;;5.93;5.18;;;16.10;99.90;16.20;100624.00;;;;4930945;28;87778;-61
2022/09/11 09:52:24;;;;;;;6.35;4.75;;;16.10;99.90;16.20;100630.00;;;;4909108;28;87910;-60
2022/09/11 09:55:04;;;;;;;7.93;6.10;;;16.10;99.90;16.30;100638.00;;;;4930866;28;88537;-62
2022/09/11 09:57:34;;;;;;;7.45;5.18;;;16.20;99.90;16.30;100651.00;;;;4925909;28;88663;-61
2022/09/11 10:00:09;;;;;;;5.65;3.55;;;16.20;99.90;16.30;100642.00;;;;4930025;28;87725;-60
2022/09/11 10:02:53;;;;;;;7.30;4.72;;;16.20;99.90;16.30;100640.00;;;;4934076;28;87720;-61
2022/09/11 10:05:32;;;;;;;7.00;4.07;;;16.20;99.90;16.30;100638.00;;;;4932668;28;87670;-61
2022/09/11 10:08:24;;;;;;;4.60;3.10;;;16.20;99.90;16.30;100639.00;;;;4928679;28;89134;-61
2022/09/11 10:10:56;;;;;;;7.15;3.60;;;16.20;99.90;16.40;100638.00;;;;4931946;28;88204;-61
2022/09/11 10:13:27;;;;;;;5.72;3.97;;;16.30;99.90;16.40;100639.00;;;;4928458;28;87303;-60
2022/09/11 10:16:00;;;;;;;6.28;3.63;;;16.30;99.90;16.40;100644.00;;;;4911136;28;88114;-60
2022/09/11 10:18:31;;;;;;;5.57;3.97;;;16.30;99.90;16.40;100652.00;;;;4929046;28;88920;-60
2022/09/11 10:21:12;;;;;;;4.85;4.38;;;16.30;99.90;16.40;100655.00;;;;4927972;28;89758;-61
2022/09/11 10:24:19;;;;;;;4.88;3.67;;;16.20;99.90;16.40;100647.00;;;;4931006;28;87892;-62
2022/09/11 10:26:49;;;;;;;5.75;5.13;;;16.30;99.90;16.40;100666.00;;;;4930385;28;87569;-61
2022/09/11 10:29:23;;;;;;;7.18;3.75;;;16.30;99.90;16.50;100661.00;;;;4931989;28;89300;-61
2022/09/11 10:32:03;;;;;;;6.70;4.35;;;16.30;99.90;16.50;100663.00;;;;4907318;28;88417;-60
2022/09/11 10:34:36;;;;;;;6.05;3.40;;;16.40;99.90;16.50;100666.00;;;;4909956;28;88123;-61
2022/09/11 10:37:19;;;;;;;6.18;4.93;;;16.40;99.90;16.50;100670.00;;;;4915770;28;87506;-61
2022/09/11 10:39:46;;;;;;;4.07;3.67;;;16.40;99.90;16.50;100670.00;;;;4935477;28;87470;-61
2022/09/11 10:42:23;;;;;;;6.85;3.85;;;16.40;99.90;16.60;100672.00;;;;4929933;28;116081;-60
2022/09/11 10:44:51;;;;;;;7.32;4.75;;;16.40;99.90;16.60;100664.00;;;;4931200;28;88032;-61
2022/09/11 10:47:20;;;;;;;4.88;3.85;;;16.50;99.90;16.60;100669.00;;;;4922847;28;89377;-61
2022/09/11 10:49:47;;;;;;;7.10;3.63;;;16.50;99.90;16.60;100674.00;;;;4930657;28;88930;-61
2022/09/11 10:52:13;;;;;;;7.25;4.82;;;16.50;99.90;16.60;100678.00;;;;4919707;28;108726;-60
2022/09/11 10:55:06;;;;;;;4.45;3.67;;;16.50;99.90;16.60;100673.00;;;;4931953;28;91687;-60
2022/09/11 10:57:44;;;;;;;8.40;4.18;;;16.50;99.90;16.70;100673.00;;;;4917320;28;94397;-61
2022/09/11 11:00:25;;;;;;;6.13;5.00;;;16.50;99.90;16.80;100663.00;;;;4915023;28;93931;-60
2022/09/11 11:02:54;;;;;;;6.65;4.32;;;16.60;99.90;16.90;100666.00;;;;4930806;28;88637;-60
2022/09/11 11:06:09;;;;;;;4.70;4.25;;;16.70;99.90;17.10;100675.00;;;;4918736;28;87064;-60
2022/09/11 11:09:04;;;;;;;4.32;3.45;;;16.90;99.90;17.40;100678.00;;;;4932912;28;87463;-59
2022/09/11 11:12:11;;;;;;;3.95;3.55;;;17.20;99.90;17.60;100673.00;;;;4912208;28;88473;-58
2022/09/11 11:15:15;;;;;;;4.28;3.70;;;17.40;99.90;17.80;100685.00;;;;4934280;28;88855;-61